createdAt,value
2018-07-14T00:04:19.415Z,7.03
2018-07-14T00:06:48.113Z,9.17
2018-07-14T00:09:16.745Z,6.30
2018-07-14T00:11:45.363Z,7.20
2018-07-14T00:14:14.041Z,6.53
2018-07-14T00:16:42.716Z,8.40
2018-07-14T00:19:11.376Z,6.97
2018-07-14T00:21:40.044Z,8.27
2018-07-14T00:24:08.703Z,5.50
2018-07-14T00:26:37.449Z,5.00
2018-07-14T00:29:06.201Z,5.63
2018-07-14T00:31:34.836Z,7.90
2018-07-14T00:34:03.580Z,8.00
2018-07-14T00:36:32.297Z,5.73
2018-07-14T00:39:00.932Z,6.53
2018-07-14T00:41:29.704Z,7.87
2018-07-14T00:43:58.391Z,5.37
2018-07-14T00:46:26.661Z,5.60
2018-07-14T00:48:54.920Z,5.60
2018-07-14T00:51:23.634Z,5.90
2018-07-14T00:53:52.246Z,5.90
2018-07-14T00:56:20.898Z,5.20
2018-07-14T00:58:49.554Z,5.83
2018-07-14T01:01:18.251Z,5.20
2018-07-14T01:03:46.970Z,5.70
2018-07-14T01:06:15.623Z,5.90
2018-07-14T01:08:44.309Z,5.40
2018-07-14T01:11:12.926Z,8.30
2018-07-14T01:13:41.801Z,5.43
2018-07-14T01:16:10.491Z,6.03
2018-07-14T01:18:38.753Z,6.00
2018-07-14T01:21:07.624Z,5.77
2018-07-14T01:23:36.255Z,6.83
2018-07-14T01:26:05.011Z,5.43
2018-07-14T01:28:33.328Z,5.97
2018-07-14T01:31:01.951Z,6.70
2018-07-14T01:33:31.010Z,5.60
2018-07-14T01:35:59.773Z,5.60
2018-07-14T01:38:28.465Z,6.57
2018-07-14T01:40:57.130Z,7.93
2018-07-14T01:43:25.835Z,6.27
2018-07-14T01:45:54.566Z,6.07
2018-07-14T01:48:23.243Z,6.70
2018-07-14T01:50:51.939Z,6.03
2018-07-14T01:53:20.570Z,5.97
2018-07-14T01:55:49.278Z,5.70
2018-07-14T01:58:18.019Z,4.90
2018-07-14T02:00:46.669Z,5.77
2018-07-14T02:03:15.307Z,5.40
2018-07-14T02:05:44.084Z,6.90
2018-07-14T02:08:12.794Z,6.73
2018-07-14T02:10:41.470Z,11.43
2018-07-14T02:13:10.129Z,6.53
2018-07-14T02:15:38.809Z,6.80
2018-07-14T02:18:07.605Z,5.83
2018-07-14T02:20:36.355Z,5.97
2018-07-14T02:23:05.031Z,8.70
2018-07-14T02:25:33.682Z,8.00
2018-07-14T02:28:02.354Z,5.53
2018-07-14T02:30:30.950Z,6.30
2018-07-14T02:32:59.221Z,5.60
2018-07-14T02:35:27.879Z,9.90
2018-07-14T02:37:56.506Z,5.70
2018-07-14T02:40:25.266Z,6.63
2018-07-14T02:42:53.987Z,5.40
2018-07-14T02:45:22.783Z,12.00
2018-07-14T02:47:51.588Z,6.03
2018-07-14T02:50:20.306Z,7.37
2018-07-14T02:52:48.965Z,8.47
2018-07-14T02:55:17.605Z,7.20
2018-07-14T02:57:46.262Z,6.10
2018-07-14T03:00:14.898Z,6.00
2018-07-14T03:02:43.573Z,5.93
2018-07-14T03:05:12.198Z,5.73
2018-07-14T03:07:40.810Z,7.90
2018-07-14T03:10:09.438Z,9.20
2018-07-14T03:12:38.070Z,6.40
2018-07-14T03:15:06.861Z,6.10
2018-07-14T03:17:35.485Z,6.20
2018-07-14T03:20:04.231Z,9.37
2018-07-14T03:22:32.917Z,6.50
2018-07-14T03:25:01.600Z,6.73
2018-07-14T03:27:30.270Z,6.43
2018-07-14T03:29:58.923Z,7.23
2018-07-14T03:32:27.608Z,6.53
2018-07-14T03:34:56.232Z,7.50
2018-07-14T03:37:35.495Z,7.23
2018-07-14T03:40:03.845Z,10.40
2018-07-14T03:42:32.442Z,6.13
2018-07-14T03:45:01.118Z,11.20
2018-07-14T03:47:29.804Z,6.40
2018-07-14T03:49:58.472Z,7.23
2018-07-14T03:52:27.165Z,6.90
2018-07-14T03:54:55.777Z,7.00
2018-07-14T03:57:24.443Z,6.47
2018-07-14T03:59:52.981Z,6.97
2018-07-14T04:02:21.657Z,10.10
2018-07-14T04:04:50.315Z,9.13
2018-07-14T04:07:19.028Z,6.70
2018-07-14T04:09:47.750Z,6.93
2018-07-14T04:12:16.389Z,8.20
2018-07-14T04:14:45.085Z,8.07
2018-07-14T04:17:13.743Z,7.00
2018-07-14T04:19:42.350Z,7.40
2018-07-14T04:22:10.966Z,7.77
2018-07-14T04:24:39.665Z,6.83
2018-07-14T04:27:08.279Z,7.27
2018-07-14T04:32:33.726Z,9.83
2018-07-14T04:35:02.342Z,6.97
2018-07-14T04:37:32.446Z,6.73
2018-07-14T04:40:01.082Z,7.43
2018-07-14T04:42:29.864Z,7.10
2018-07-14T04:44:58.428Z,8.27
2018-07-14T04:47:50.751Z,7.60
2018-07-14T04:50:19.506Z,8.20
2018-07-14T04:52:48.163Z,7.93
2018-07-14T04:55:16.892Z,9.10
2018-07-14T04:57:45.563Z,8.10
2018-07-14T05:00:14.218Z,8.33
2018-07-14T05:02:42.782Z,9.73
2018-07-14T05:08:04.304Z,8.53
2018-07-14T05:10:32.931Z,8.30
2018-07-14T05:13:01.603Z,8.50
2018-07-14T05:15:36.274Z,8.40
2018-07-14T05:18:04.953Z,7.50
2018-07-14T05:20:47.371Z,8.03
2018-07-14T05:23:16.039Z,7.97
2018-07-14T05:25:44.791Z,7.63
2018-07-14T05:28:13.507Z,8.90
2018-07-14T05:31:06.041Z,6.97
2018-07-14T05:33:34.793Z,7.17
2018-07-14T05:36:03.436Z,6.70
2018-07-14T05:38:32.105Z,7.20
2018-07-14T05:41:00.757Z,7.53
2018-07-14T05:43:29.487Z,7.63
2018-07-14T05:45:58.250Z,10.30
2018-07-14T05:48:26.938Z,8.77
2018-07-14T05:50:55.666Z,9.90
2018-07-14T05:53:24.399Z,8.87
2018-07-14T05:56:05.204Z,11.43
2018-07-14T05:58:33.915Z,9.20
2018-07-14T06:01:02.555Z,9.07
2018-07-14T06:03:31.234Z,8.97
2018-07-14T06:05:59.856Z,9.23
2018-07-14T06:08:28.522Z,11.70
2018-07-14T06:10:57.198Z,10.70
2018-07-14T06:13:25.878Z,8.13
2018-07-14T06:15:54.555Z,8.83
2018-07-14T06:18:23.162Z,6.80
2018-07-14T06:20:51.838Z,7.50
2018-07-14T06:23:20.590Z,7.57
2018-07-14T06:25:49.272Z,6.73
2018-07-14T06:28:18.002Z,11.60
2018-07-14T06:30:46.694Z,7.80
2018-07-14T06:33:15.304Z,8.13
2018-07-14T06:35:43.931Z,7.63
2018-07-14T06:38:12.559Z,9.07
2018-07-14T06:40:41.169Z,12.47
2018-07-14T06:43:09.821Z,11.87
2018-07-14T06:45:38.548Z,8.60
2018-07-14T06:48:07.250Z,8.07
2018-07-14T06:50:48.144Z,8.47
2018-07-14T06:53:16.715Z,8.20
2018-07-14T06:55:45.316Z,7.60
2018-07-14T06:58:14.001Z,8.20
2018-07-14T07:00:42.705Z,7.43
2018-07-14T07:03:11.410Z,8.80
2018-07-14T07:05:39.936Z,7.80
2018-07-14T07:08:08.784Z,7.07
2018-07-14T07:10:37.504Z,6.87
2018-07-14T07:13:06.283Z,7.70
2018-07-14T07:15:34.913Z,6.63
2018-07-14T07:18:03.610Z,6.90
2018-07-14T07:20:32.326Z,9.40
2018-07-14T07:23:01.044Z,6.23
2018-07-14T07:25:29.687Z,9.10
2018-07-14T07:27:58.297Z,6.33
2018-07-14T07:30:26.882Z,6.80
2018-07-14T07:32:55.621Z,6.30
2018-07-14T07:35:23.891Z,10.17
2018-07-14T07:37:52.932Z,5.97
2018-07-14T07:40:21.575Z,9.90
2018-07-14T07:42:50.266Z,5.90
2018-07-14T07:45:19.005Z,6.90
2018-07-14T07:47:47.729Z,5.87
2018-07-14T07:50:16.013Z,5.00
2018-07-14T07:52:44.807Z,5.40
2018-07-14T07:55:13.413Z,6.13
2018-07-14T07:57:42.145Z,6.63
2018-07-14T08:00:10.870Z,6.00
2018-07-14T08:02:39.619Z,7.00
2018-07-14T08:05:08.293Z,5.60
2018-07-14T08:07:37.008Z,5.27
2018-07-14T08:10:05.811Z,4.97
2018-07-14T08:12:34.490Z,7.10
2018-07-14T08:15:03.280Z,6.53
2018-07-14T08:17:31.559Z,5.83
2018-07-14T08:20:00.187Z,11.03
2018-07-14T08:22:28.802Z,5.00
2018-07-14T08:24:57.508Z,4.60
2018-07-14T08:27:25.795Z,4.97
2018-07-14T08:29:54.045Z,4.73
2018-07-14T08:32:22.676Z,5.60
2018-07-14T08:34:51.373Z,4.47
2018-07-14T08:37:20.106Z,4.70
2018-07-14T08:39:48.706Z,5.13
2018-07-14T08:42:17.392Z,4.63
2018-07-14T08:44:45.720Z,4.60
2018-07-14T08:47:14.482Z,4.77
2018-07-14T08:49:43.106Z,6.13
2018-07-14T08:52:11.826Z,8.13
2018-07-14T08:54:40.501Z,5.83
2018-07-14T08:57:09.192Z,4.80
2018-07-14T08:59:37.810Z,5.10
2018-07-14T09:02:06.574Z,4.67
2018-07-14T09:04:35.257Z,4.57
2018-07-14T09:07:04.044Z,7.10
2018-07-14T09:09:32.733Z,7.30
2018-07-14T09:12:01.387Z,5.63
2018-07-14T09:14:30.020Z,7.10
2018-07-14T09:16:58.621Z,7.83
2018-07-14T09:19:27.247Z,5.47
2018-07-14T09:21:55.950Z,4.77
2018-07-14T09:24:24.672Z,4.23
2018-07-14T09:26:53.282Z,3.60
2018-07-14T09:29:21.974Z,4.70
2018-07-14T09:31:50.569Z,4.87
2018-07-14T09:34:19.272Z,5.20
2018-07-14T09:36:47.896Z,4.00
2018-07-14T09:39:16.775Z,9.70
2018-07-14T09:41:45.394Z,3.80
2018-07-14T09:44:13.970Z,8.07
2018-07-14T09:46:42.518Z,4.00
2018-07-14T09:49:11.145Z,5.23
2018-07-14T09:51:39.761Z,3.60
2018-07-14T09:54:08.417Z,3.60
2018-07-14T09:56:37.024Z,3.63
2018-07-14T09:59:05.700Z,3.30
2018-07-14T10:01:34.303Z,6.40
2018-07-14T10:04:03.046Z,4.00
2018-07-14T10:06:31.661Z,3.07
2018-07-14T10:09:00.284Z,2.90
2018-07-14T10:11:28.946Z,3.80
2018-07-14T10:13:57.566Z,3.43
2018-07-14T10:16:26.232Z,3.60
2018-07-14T10:21:52.584Z,3.10
2018-07-14T10:24:21.306Z,3.00
2018-07-14T10:26:49.942Z,2.50
2018-07-14T10:29:24.024Z,7.07
2018-07-14T10:31:59.966Z,4.20
2018-07-14T10:34:28.623Z,3.63
2018-07-14T10:36:57.280Z,2.53
2018-07-14T10:39:25.860Z,2.87
2018-07-14T10:41:54.467Z,1.93
2018-07-14T10:44:25.156Z,2.00
2018-07-14T10:46:54.534Z,2.20
2018-07-14T10:49:23.098Z,2.27
2018-07-14T10:51:51.751Z,1.87
2018-07-14T10:54:42.694Z,2.23
2018-07-14T10:57:11.430Z,2.70
2018-07-14T10:59:40.070Z,2.53
2018-07-14T11:02:08.654Z,3.53
2018-07-14T11:07:48.596Z,9.03
2018-07-14T11:10:19.356Z,2.90
2018-07-14T11:12:57.744Z,2.50
2018-07-14T11:15:36.742Z,3.63
2018-07-14T11:18:05.725Z,3.20
2018-07-14T11:20:34.775Z,5.03
2018-07-14T11:23:03.764Z,5.47
2018-07-14T11:25:32.464Z,3.67
2018-07-14T11:28:01.212Z,3.53
2018-07-14T11:30:29.859Z,3.20
2018-07-14T11:32:58.625Z,3.93
2018-07-14T11:35:27.226Z,3.30
2018-07-14T11:37:55.782Z,5.70
2018-07-14T11:40:24.482Z,3.90
2018-07-14T11:42:53.018Z,6.40
2018-07-14T11:45:21.746Z,3.57
2018-07-14T11:47:50.524Z,6.10
2018-07-14T11:50:19.138Z,3.63
2018-07-14T11:52:47.823Z,4.47
2018-07-14T11:55:16.398Z,4.07
2018-07-14T11:57:44.997Z,3.67
2018-07-14T12:00:13.665Z,4.73
2018-07-14T12:02:42.379Z,3.80
2018-07-14T12:05:11.024Z,3.63
2018-07-14T12:07:39.707Z,4.43
2018-07-14T12:10:08.410Z,6.00
2018-07-14T12:12:37.080Z,4.43
2018-07-14T12:15:05.748Z,5.10
2018-07-14T12:17:34.436Z,9.20
2018-07-14T12:20:03.127Z,4.90
2018-07-14T12:22:31.746Z,4.07
2018-07-14T12:25:00.396Z,3.90
2018-07-14T12:27:29.095Z,6.33
2018-07-14T12:29:57.719Z,5.10
2018-07-14T12:32:26.302Z,6.00
2018-07-14T12:34:54.871Z,3.23
2018-07-14T12:37:23.612Z,3.10
2018-07-14T12:39:52.263Z,2.97
2018-07-14T12:42:20.879Z,2.93
2018-07-14T12:44:49.580Z,2.90
2018-07-14T12:50:15.846Z,3.33
2018-07-14T12:52:44.462Z,3.13
2018-07-14T12:55:13.155Z,3.07
2018-07-14T12:57:41.738Z,5.33
2018-07-14T13:00:10.476Z,4.80
2018-07-14T13:02:39.316Z,3.60
2018-07-14T13:05:08.254Z,3.63
2018-07-14T13:07:36.957Z,3.40
2018-07-14T13:10:06.306Z,3.47
2018-07-14T13:12:34.959Z,5.63
2018-07-14T13:15:03.729Z,3.43
2018-07-14T13:17:32.303Z,3.67
2018-07-14T13:20:00.902Z,3.07
2018-07-14T13:22:29.513Z,2.60
2018-07-14T13:24:58.200Z,2.97
2018-07-14T13:27:26.783Z,2.93
2018-07-14T13:29:55.494Z,2.97
2018-07-14T13:32:24.113Z,2.80
2018-07-14T13:40:40.319Z,2.60
2018-07-14T13:43:08.977Z,3.13
2018-07-14T13:45:37.705Z,3.20
2018-07-14T13:54:16.367Z,4.03
2018-07-14T13:56:45.128Z,5.77
2018-07-14T13:59:13.953Z,6.60
2018-07-14T14:01:42.735Z,3.77
2018-07-14T14:04:11.382Z,3.90
2018-07-14T14:06:40.907Z,5.60
2018-07-14T14:12:09.427Z,3.50
2018-07-14T14:14:56.502Z,5.97
2018-07-14T14:17:25.159Z,3.03
2018-07-14T14:19:59.681Z,4.43
2018-07-14T14:25:25.156Z,3.20
2018-07-14T14:27:53.792Z,4.30
2018-07-14T14:30:22.446Z,3.40
2018-07-14T14:32:51.170Z,4.10
2018-07-14T14:35:20.283Z,5.93
2018-07-14T14:37:48.980Z,3.20
2018-07-14T14:40:17.659Z,3.60
2018-07-14T14:42:46.283Z,3.57
2018-07-14T14:45:14.964Z,4.73
2018-07-14T14:47:43.610Z,3.60
2018-07-14T14:50:12.226Z,4.00
2018-07-14T14:52:40.955Z,4.27
2018-07-14T14:55:09.578Z,6.00
2018-07-14T14:57:38.205Z,5.63
2018-07-14T15:00:06.915Z,4.70
2018-07-14T15:02:35.547Z,3.90
2018-07-14T15:05:04.206Z,4.70
2018-07-14T15:07:32.854Z,5.20
2018-07-14T15:10:01.590Z,4.80
2018-07-14T15:12:30.215Z,5.17
2018-07-14T15:14:58.872Z,4.40
2018-07-14T15:17:27.553Z,4.60
2018-07-14T15:19:56.240Z,6.47
2018-07-14T15:25:18.902Z,5.10
2018-07-14T15:27:47.659Z,4.53
2018-07-14T15:30:16.329Z,7.23
2018-07-14T15:32:45.128Z,6.30
2018-07-14T15:35:13.811Z,6.60
2018-07-14T15:37:42.488Z,4.87
2018-07-14T15:40:22.059Z,4.90
2018-07-14T15:42:50.786Z,6.10
2018-07-14T15:45:19.524Z,6.90
2018-07-14T15:47:47.757Z,4.70
2018-07-14T15:50:16.341Z,4.80
2018-07-14T15:52:45.017Z,5.33
2018-07-14T15:55:13.761Z,5.17
2018-07-14T15:58:02.586Z,4.63
2018-07-14T16:00:44.084Z,4.43
2018-07-14T16:03:12.756Z,8.17
2018-07-14T16:05:41.365Z,4.27
2018-07-14T16:08:09.988Z,4.40
2018-07-14T16:10:38.598Z,4.77
2018-07-14T16:13:07.444Z,7.00
2018-07-14T16:15:36.141Z,4.17
2018-07-14T16:18:04.891Z,5.20
2018-07-14T16:20:33.535Z,6.33
2018-07-14T16:23:22.498Z,4.40
2018-07-14T16:25:51.159Z,4.70
2018-07-14T16:28:19.815Z,4.60
2018-07-14T16:30:48.535Z,4.27
2018-07-14T16:33:17.191Z,4.50
2018-07-14T16:35:45.979Z,4.83
2018-07-14T16:38:14.544Z,4.50
2018-07-14T16:40:43.192Z,4.97
2018-07-14T16:43:11.914Z,4.63
2018-07-14T16:45:40.615Z,8.87
2018-07-14T16:48:09.341Z,5.37
2018-07-14T16:50:38.050Z,5.43
2018-07-14T16:53:06.748Z,5.20
2018-07-14T16:55:35.478Z,6.40
2018-07-14T16:58:04.054Z,7.20
2018-07-14T17:00:37.888Z,5.80
2018-07-14T17:03:17.036Z,6.77
2018-07-14T17:05:45.771Z,7.53
2018-07-14T17:08:14.548Z,8.10
2018-07-14T17:10:43.327Z,5.33
2018-07-14T17:13:12.034Z,20.50
2018-07-14T17:15:40.699Z,6.00
2018-07-14T17:18:12.765Z,5.80
2018-07-14T17:20:41.403Z,5.43
2018-07-14T17:23:10.271Z,6.23
2018-07-14T17:25:38.947Z,5.60
2018-07-14T17:28:07.723Z,5.93
2018-07-14T17:30:36.430Z,6.00
2018-07-14T17:33:05.097Z,5.33
2018-07-14T17:35:33.817Z,5.23
2018-07-14T17:38:02.578Z,6.13
2018-07-14T17:40:31.231Z,6.97
2018-07-14T17:42:59.835Z,5.67
2018-07-14T17:45:28.423Z,6.13
2018-07-14T17:47:56.737Z,6.60
2018-07-14T17:50:25.431Z,5.87
2018-07-14T17:52:54.121Z,7.70
2018-07-14T17:55:22.842Z,7.03
2018-07-14T18:00:52.714Z,7.00
2018-07-14T18:03:21.483Z,9.93
2018-07-14T18:05:50.113Z,6.47
2018-07-14T18:11:14.084Z,6.17
2018-07-14T18:13:42.772Z,5.60
2018-07-14T18:16:11.549Z,6.70
2018-07-14T18:18:40.294Z,5.43
2018-07-14T18:21:09.038Z,6.00
2018-07-14T18:23:48.355Z,6.37
2018-07-14T18:26:17.153Z,9.60
2018-07-14T18:28:46.690Z,6.27
2018-07-14T18:31:15.440Z,9.67
2018-07-14T18:33:57.033Z,7.23
2018-07-14T18:36:31.258Z,8.60
2018-07-14T18:39:00.071Z,6.33
2018-07-14T18:41:28.821Z,6.40
2018-07-14T18:43:57.532Z,6.63
2018-07-14T18:46:26.319Z,6.37
2018-07-14T18:48:55.039Z,8.03
2018-07-14T18:51:24.861Z,7.83
2018-07-14T18:53:53.814Z,8.93
2018-07-14T18:56:22.692Z,6.73
2018-07-14T18:58:52.492Z,6.43
2018-07-14T19:04:14.803Z,7.60
2018-07-14T19:06:43.481Z,6.90
2018-07-14T19:09:12.150Z,6.73
2018-07-14T19:11:40.772Z,6.93
2018-07-14T19:14:11.528Z,6.70
2018-07-14T19:16:40.380Z,6.53
2018-07-14T19:19:09.106Z,7.57
2018-07-14T19:21:37.806Z,7.30
2018-07-14T19:24:06.667Z,9.73
2018-07-14T19:26:35.484Z,7.00
2018-07-14T19:29:04.168Z,6.90
2018-07-14T19:31:33.300Z,7.73
2018-07-14T19:34:01.974Z,8.00
2018-07-14T19:36:30.570Z,7.47
2018-07-14T19:38:59.301Z,8.73
2018-07-14T19:41:27.946Z,10.70
2018-07-14T19:43:56.651Z,7.60
2018-07-14T19:46:25.023Z,8.17
2018-07-14T19:48:53.635Z,8.10
2018-07-14T19:51:22.266Z,7.67
2018-07-14T19:53:50.980Z,6.50
2018-07-14T19:56:19.725Z,7.43
2018-07-14T19:58:48.803Z,7.43
2018-07-14T20:01:17.539Z,7.47
2018-07-14T20:03:46.306Z,10.20
2018-07-14T20:06:14.945Z,7.30
2018-07-14T20:08:43.705Z,8.33
2018-07-14T20:11:12.304Z,7.40
2018-07-14T20:13:40.990Z,8.27
2018-07-14T20:16:10.312Z,7.70
2018-07-14T20:18:39.552Z,6.60
2018-07-14T20:21:08.138Z,7.40
2018-07-14T20:23:36.771Z,7.53
2018-07-14T20:26:05.670Z,7.47
2018-07-14T20:28:34.390Z,8.23
2018-07-14T20:31:03.157Z,9.57
2018-07-14T20:33:31.855Z,7.57
2018-07-14T20:36:00.579Z,7.37
2018-07-14T20:38:29.246Z,8.30
2018-07-14T20:40:57.817Z,7.50
2018-07-14T20:43:26.399Z,8.20
2018-07-14T20:45:55.135Z,8.57
2018-07-14T20:48:23.401Z,8.33
2018-07-14T20:50:52.043Z,7.87
2018-07-14T20:53:20.694Z,7.47
2018-07-14T20:55:49.366Z,8.87
2018-07-14T20:58:17.990Z,8.00
2018-07-14T21:00:46.741Z,8.60
2018-07-14T21:03:15.486Z,11.80
2018-07-14T21:05:44.134Z,13.87
2018-07-14T21:08:12.816Z,14.33
2018-07-14T21:10:41.541Z,16.07
2018-07-14T21:13:10.184Z,16.53
2018-07-14T21:15:39.034Z,14.70
2018-07-14T21:18:07.723Z,11.47
2018-07-14T21:20:36.489Z,7.90
2018-07-14T21:23:05.149Z,7.00
2018-07-14T21:25:33.779Z,7.30
2018-07-14T21:28:02.375Z,7.33
2018-07-14T21:30:31.021Z,7.93
2018-07-14T21:32:59.710Z,6.30
2018-07-14T21:35:28.372Z,7.27
2018-07-14T21:37:57.006Z,8.90
2018-07-14T21:40:25.655Z,10.83
2018-07-14T21:42:54.286Z,9.07
2018-07-14T21:45:22.617Z,7.53
2018-07-14T21:47:51.366Z,8.80
2018-07-14T21:50:20.086Z,7.43
2018-07-14T21:52:48.815Z,7.73
2018-07-14T21:55:17.610Z,7.63
2018-07-14T21:57:46.419Z,7.83
2018-07-14T22:00:25.834Z,8.43
2018-07-14T22:02:54.522Z,12.83
2018-07-14T22:05:22.874Z,8.33
2018-07-14T22:07:51.451Z,8.23
2018-07-14T22:10:20.510Z,7.67
2018-07-14T22:12:49.397Z,9.50
2018-07-14T22:15:18.103Z,8.53
2018-07-14T22:17:46.665Z,8.83
2018-07-14T22:20:15.514Z,11.63
2018-07-14T22:22:44.222Z,10.43
2018-07-14T22:25:12.471Z,10.93
2018-07-14T22:27:41.078Z,9.20
2018-07-14T22:30:09.805Z,12.87
2018-07-14T22:32:38.663Z,9.27
2018-07-14T22:35:07.654Z,9.53
2018-07-14T22:37:36.353Z,8.23
2018-07-14T22:40:05.561Z,8.97
2018-07-14T22:42:34.951Z,9.50
2018-07-14T22:45:03.701Z,8.63
2018-07-14T22:47:32.342Z,8.70
2018-07-14T22:50:01.012Z,8.63
2018-07-14T22:52:29.658Z,9.80
2018-07-14T22:54:58.350Z,9.40
2018-07-14T22:57:27.118Z,10.33
2018-07-14T22:59:55.676Z,8.90
2018-07-14T23:02:24.356Z,9.70
2018-07-14T23:04:52.968Z,9.63
2018-07-14T23:07:21.542Z,9.27
2018-07-14T23:09:50.201Z,10.13
2018-07-14T23:12:18.892Z,9.50
2018-07-14T23:14:47.458Z,13.03
2018-07-14T23:17:16.138Z,13.70
2018-07-14T23:19:44.807Z,11.63
2018-07-14T23:22:13.406Z,9.93
2018-07-14T23:24:42.146Z,11.73
2018-07-14T23:27:10.755Z,9.60
2018-07-14T23:29:39.408Z,11.47
2018-07-14T23:32:08.074Z,14.87
2018-07-14T23:34:36.899Z,13.43
2018-07-14T23:37:05.574Z,13.37
2018-07-14T23:39:34.270Z,13.00
2018-07-14T23:42:02.941Z,14.60
2018-07-14T23:44:31.561Z,10.50
2018-07-14T23:47:00.118Z,10.33
2018-07-14T23:49:28.813Z,10.30
2018-07-14T23:51:57.448Z,10.60
2018-07-14T23:54:26.490Z,11.40
2018-07-14T23:56:55.318Z,10.90
2018-07-14T23:59:24.025Z,12.73
